Rowlett, Texas
Current Conditions -  °F | °C
As of 3:35 PM on Sunday 23 Nov 2014 (Local Time) from KF46 Reporting Station
Clear Clear  
Wind Chill: 25°   Ceiling: Unl
Heat Index: 25°   Visibility: 10mi
Dew Point:   Wind: 13mph
Humidity: 30%   Direction: 270°W
Pressure: 29.39"   Gusts: 21mph
Location:  32.9°N, 96.57°W
Report Text: KF46 232135Z AUTO 27011G18KT 10SM CLR 25/06 A2939 RMK AO2 T02450056
Loading
Personal Weather Stations






























Interactive Weather Map New forecast layout! Learn more

10-Day Weather Forecast

Advertisements
Track Severe Weather on mobile